sensor_id;sensor_type;location;lat;lon;timestamp;pressure;altitude;pressure_sealevel;temperature;humidity
54918;BME280;40818;50.562;7.454;2023-04-03T00:08:32;98774.44;;;1.61;100.00
54918;BME280;40818;50.562;7.454;2023-04-03T00:18:39;98779.56;;;1.61;100.00
54918;BME280;40818;50.562;7.454;2023-04-03T00:28:43;98795.78;;;1.59;100.00
54918;BME280;40818;50.562;7.454;2023-04-03T00:38:49;98781.28;;;1.59;100.00
54918;BME280;40818;50.562;7.454;2023-04-03T00:48:52;98781.34;;;1.56;100.00
54918;BME280;40818;50.562;7.454;2023-04-03T00:59:01;98770.41;;;1.42;100.00
54918;BME280;40818;50.562;7.454;2023-04-03T01:09:06;98760.28;;;1.32;100.00
54918;BME280;40818;50.562;7.454;2023-04-03T01:19:15;98755.22;;;1.28;100.00
54918;BME280;40818;50.562;7.454;2023-04-03T01:29:19;98749.47;;;1.09;100.00
54918;BME280;40818;50.562;7.454;2023-04-03T01:39:25;98763.09;;;1.09;100.00
54918;BME280;40818;50.562;7.454;2023-04-03T01:49:29;98767.38;;;1.07;100.00
54918;BME280;40818;50.562;7.454;2023-04-03T01:59:36;98758.03;;;1.05;100.00
54918;BME280;40818;50.562;7.454;2023-04-03T02:09:41;98759.91;;;0.87;100.00
54918;BME280;40818;50.562;7.454;2023-04-03T02:19:47;98763.28;;;0.91;100.00
54918;BME280;40818;50.562;7.454;2023-04-03T02:29:50;98761.66;;;0.85;100.00
54918;BME280;40818;50.562;7.454;2023-04-03T02:39:56;98756.44;;;0.94;100.00
54918;BME280;40818;50.562;7.454;2023-04-03T02:50:02;98763.31;;;0.89;100.00
54918;BME280;40818;50.562;7.454;2023-04-03T03:00:10;98760.75;;;0.88;100.00
54918;BME280;40818;50.562;7.454;2023-04-03T03:10:14;98773.59;;;0.83;100.00
54918;BME280;40818;50.562;7.454;2023-04-03T03:20:20;98776.25;;;0.69;100.00
54918;BME280;40818;50.562;7.454;2023-04-03T03:30:24;98775.47;;;0.62;100.00
54918;BME280;40818;50.562;7.454;2023-04-03T03:40:30;98773.09;;;0.42;100.00
54918;BME280;40818;50.562;7.454;2023-04-03T03:50:34;98776.69;;;0.12;100.00
54918;BME280;40818;50.562;7.454;2023-04-03T04:00:40;98773.44;;;-0.13;100.00
54918;BME280;40818;50.562;7.454;2023-04-03T04:10:44;98780.41;;;-0.42;100.00
54918;BME280;40818;50.562;7.454;2023-04-03T04:20:53;98774.53;;;-0.69;100.00
54918;BME280;40818;50.562;7.454;2023-04-03T04:30:57;98769.50;;;-0.89;100.00
54918;BME280;40818;50.562;7.454;2023-04-03T04:41:04;98783.13;;;-1.00;100.00
54918;BME280;40818;50.562;7.454;2023-04-03T04:51:08;98796.72;;;-1.08;100.00
54918;BME280;40818;50.562;7.454;2023-04-03T05:01:15;98798.47;;;-1.25;100.00
54918;BME280;40818;50.562;7.454;2023-04-03T05:11:27;98817.97;;;-1.40;100.00
54918;BME280;40818;50.562;7.454;2023-04-03T05:21:34;98826.44;;;-0.99;100.00
54918;BME280;40818;50.562;7.454;2023-04-03T05:31:42;98821.25;;;-0.49;100.00
54918;BME280;40818;50.562;7.454;2023-04-03T05:41:50;98825.41;;;-0.30;100.00
54918;BME280;40818;50.562;7.454;2023-04-03T05:51:54;98840.47;;;0.24;100.00
54918;BME280;40818;50.562;7.454;2023-04-03T06:02:03;98846.31;;;0.40;100.00
54918;BME280;40818;50.562;7.454;2023-04-03T06:12:06;98864.00;;;0.73;100.00
54918;BME280;40818;50.562;7.454;2023-04-03T06:22:14;98873.44;;;1.59;100.00
54918;BME280;40818;50.562;7.454;2023-04-03T06:32:20;98872.53;;;2.33;98.62
54918;BME280;40818;50.562;7.454;2023-04-03T06:42:26;98873.28;;;2.40;92.12
54918;BME280;40818;50.562;7.454;2023-04-03T06:52:39;98880.88;;;2.48;93.50
54918;BME280;40818;50.562;7.454;2023-04-03T07:02:46;98883.06;;;3.27;87.79
54918;BME280;40818;50.562;7.454;2023-04-03T07:12:49;98889.84;;;3.76;85.32
54918;BME280;40818;50.562;7.454;2023-04-03T07:22:55;98891.75;;;4.10;80.41
54918;BME280;40818;50.562;7.454;2023-04-03T07:32:59;98886.00;;;4.40;78.50
54918;BME280;40818;50.562;7.454;2023-04-03T07:43:05;98904.25;;;4.27;78.33
54918;BME280;40818;50.562;7.454;2023-04-03T07:53:10;98900.44;;;4.85;75.81
54918;BME280;40818;50.562;7.454;2023-04-03T08:03:16;98897.31;;;5.06;73.68
54918;BME280;40818;50.562;7.454;2023-04-03T08:13:21;98894.47;;;5.85;72.88
54918;BME280;40818;50.562;7.454;2023-04-03T08:23:27;98896.22;;;5.82;70.38
54918;BME280;40818;50.562;7.454;2023-04-03T08:33:31;98903.75;;;6.22;64.48
54918;BME280;40818;50.562;7.454;2023-04-03T08:43:48;98918.34;;;5.58;62.80
54918;BME280;40818;50.562;7.454;2023-04-03T08:54:00;98918.94;;;5.35;66.37
54918;BME280;40818;50.562;7.454;2023-04-03T09:04:10;98903.75;;;6.22;68.84
54918;BME280;40818;50.562;7.454;2023-04-03T09:14:21;98924.47;;;5.86;66.25
54918;BME280;40818;50.562;7.454;2023-04-03T09:24:32;98923.56;;;5.57;61.35
54918;BME280;40818;50.562;7.454;2023-04-03T09:34:37;98943.22;;;5.92;63.06
54918;BME280;40818;50.562;7.454;2023-04-03T09:44:54;98931.03;;;4.97;68.73
54918;BME280;40818;50.562;7.454;2023-04-03T09:55:06;98921.72;;;4.54;63.53
54918;BME280;40818;50.562;7.454;2023-04-03T10:05:31;98930.13;;;4.98;63.39
54918;BME280;40818;50.562;7.454;2023-04-03T10:15:39;98937.47;;;5.15;56.55
54918;BME280;40818;50.562;7.454;2023-04-03T10:25:57;98909.97;;;5.16;53.17
54918;BME280;40818;50.562;7.454;2023-04-03T10:36:16;98911.09;;;5.05;57.34
54918;BME280;40818;50.562;7.454;2023-04-03T10:46:27;98915.84;;;5.55;52.66
54918;BME280;40818;50.562;7.454;2023-04-03T10:56:35;98914.75;;;5.31;51.38
54918;BME280;40818;50.562;7.454;2023-04-03T11:06:46;98900.41;;;5.21;52.38
54918;BME280;40818;50.562;7.454;2023-04-03T11:17:01;98903.97;;;5.50;53.57
54918;BME280;40818;50.562;7.454;2023-04-03T11:27:15;98891.59;;;5.64;48.04
54918;BME280;40818;50.562;7.454;2023-04-03T11:37:28;98880.78;;;5.50;51.12
54918;BME280;40818;50.562;7.454;2023-04-03T11:47:47;98888.63;;;5.78;50.48
54918;BME280;40818;50.562;7.454;2023-04-03T11:58:13;98883.72;;;5.69;51.48
54918;BME280;40818;50.562;7.454;2023-04-03T12:08:26;98862.41;;;5.62;48.95
54918;BME280;40818;50.562;7.454;2023-04-03T12:18:55;98871.44;;;5.45;48.01
54918;BME280;40818;50.562;7.454;2023-04-03T12:29:02;98851.78;;;5.74;52.44
54918;BME280;40818;50.562;7.454;2023-04-03T12:39:22;98840.44;;;5.50;47.78
54918;BME280;40818;50.562;7.454;2023-04-03T12:49:39;98829.84;;;5.91;49.75
54918;BME280;40818;50.562;7.454;2023-04-03T12:59:45;98835.59;;;6.59;48.56
54918;BME280;40818;50.562;7.454;2023-04-03T13:10:00;98822.19;;;6.47;50.50
54918;BME280;40818;50.562;7.454;2023-04-03T13:20:21;98812.25;;;6.35;48.71
54918;BME280;40818;50.562;7.454;2023-04-03T13:30:31;98806.00;;;6.69;47.26
54918;BME280;40818;50.562;7.454;2023-04-03T13:40:47;98787.34;;;7.85;49.45
54918;BME280;40818;50.562;7.454;2023-04-03T13:50:57;98791.72;;;7.11;45.22
54918;BME280;40818;50.562;7.454;2023-04-03T14:01:08;98779.53;;;6.64;46.56
54918;BME280;40818;50.562;7.454;2023-04-03T14:11:18;98778.06;;;6.55;46.29
54918;BME280;40818;50.562;7.454;2023-04-03T14:21:23;98768.91;;;7.24;46.96
54918;BME280;40818;50.562;7.454;2023-04-03T14:31:29;98756.09;;;7.44;44.97
54918;BME280;40818;50.562;7.454;2023-04-03T14:41:33;98744.94;;;6.95;46.94
54918;BME280;40818;50.562;7.454;2023-04-03T14:51:39;98734.75;;;6.38;47.13
54918;BME280;40818;50.562;7.454;2023-04-03T15:01:43;98729.72;;;6.35;46.80
54918;BME280;40818;50.562;7.454;2023-04-03T15:11:49;98734.16;;;6.57;47.98
54918;BME280;40818;50.562;7.454;2023-04-03T15:21:53;98733.88;;;6.12;48.76
54918;BME280;40818;50.562;7.454;2023-04-03T15:31:59;98722.75;;;5.82;47.90
54918;BME280;40818;50.562;7.454;2023-04-03T15:42:03;98724.78;;;5.41;49.82
54918;BME280;40818;50.562;7.454;2023-04-03T15:52:09;98723.50;;;5.56;48.79
54918;BME280;40818;50.562;7.454;2023-04-03T16:02:15;98732.56;;;5.08;48.06
54918;BME280;40818;50.562;7.454;2023-04-03T16:12:22;98733.91;;;5.21;49.19
54918;BME280;40818;50.562;7.454;2023-04-03T16:22:27;98732.97;;;4.92;48.12
54918;BME280;40818;50.562;7.454;2023-04-03T16:32:34;98740.47;;;4.67;50.20
54918;BME280;40818;50.562;7.454;2023-04-03T16:42:38;98742.03;;;4.38;51.79
54918;BME280;40818;50.562;7.454;2023-04-03T16:52:45;98740.72;;;4.22;49.21
54918;BME280;40818;50.562;7.454;2023-04-03T17:02:48;98748.53;;;4.17;49.46
54918;BME280;40818;50.562;7.454;2023-04-03T17:12:54;98758.59;;;3.89;50.86
54918;BME280;40818;50.562;7.454;2023-04-03T17:22:58;98746.06;;;3.75;51.71
54918;BME280;40818;50.562;7.454;2023-04-03T17:33:04;98759.22;;;3.59;52.19
54918;BME280;40818;50.562;7.454;2023-04-03T17:43:07;98753.84;;;3.28;53.03
54918;BME280;40818;50.562;7.454;2023-04-03T17:53:14;98763.56;;;3.12;53.49
54918;BME280;40818;50.562;7.454;2023-04-03T18:03:17;98772.56;;;2.86;54.49
54918;BME280;40818;50.562;7.454;2023-04-03T18:13:23;98772.03;;;2.69;55.48
54918;BME280;40818;50.562;7.454;2023-04-03T18:23:28;98783.44;;;2.51;55.43
54918;BME280;40818;50.562;7.454;2023-04-03T18:33:36;98784.78;;;2.17;57.15
54918;BME280;40818;50.562;7.454;2023-04-03T18:43:39;98797.94;;;1.93;58.23
54918;BME280;40818;50.562;7.454;2023-04-03T18:53:46;98802.56;;;1.64;59.47
54918;BME280;40818;50.562;7.454;2023-04-03T19:03:49;98793.47;;;1.39;61.36
54918;BME280;40818;50.562;7.454;2023-04-03T19:13:55;98809.59;;;1.47;62.25
54918;BME280;40818;50.562;7.454;2023-04-03T19:23:59;98814.09;;;1.25;61.64
54918;BME280;40818;50.562;7.454;2023-04-03T19:34:06;98817.72;;;1.04;62.83
54918;BME280;40818;50.562;7.454;2023-04-03T19:44:10;98817.75;;;0.97;62.17
54918;BME280;40818;50.562;7.454;2023-04-03T19:54:16;98830.72;;;0.77;63.23
54918;BME280;40818;50.562;7.454;2023-04-03T20:04:19;98821.44;;;0.68;63.91
54918;BME280;40818;50.562;7.454;2023-04-03T20:14:28;98815.53;;;0.60;63.49
54918;BME280;40818;50.562;7.454;2023-04-03T20:24:31;98824.09;;;0.55;64.06
54918;BME280;40818;50.562;7.454;2023-04-03T20:34:42;98819.13;;;0.34;65.15
54918;BME280;40818;50.562;7.454;2023-04-03T20:44:46;98822.63;;;0.16;67.17
54918;BME280;40818;50.562;7.454;2023-04-03T20:54:52;98813.31;;;0.11;66.82
54918;BME280;40818;50.562;7.454;2023-04-03T21:04:55;98811.66;;;0.04;67.06
54918;BME280;40818;50.562;7.454;2023-04-03T21:25:36;98816.09;;;-0.36;69.57
54918;BME280;40818;50.562;7.454;2023-04-03T21:35:39;98815.28;;;-0.47;70.54
54918;BME280;40818;50.562;7.454;2023-04-03T21:45:45;98813.59;;;-0.48;70.48
54918;BME280;40818;50.562;7.454;2023-04-03T21:55:52;98810.22;;;-0.56;70.10
54918;BME280;40818;50.562;7.454;2023-04-03T22:05:59;98806.81;;;-0.64;70.87
54918;BME280;40818;50.562;7.454;2023-04-03T22:16:03;98808.56;;;-0.76;71.64
54918;BME280;40818;50.562;7.454;2023-04-03T22:26:10;98818.78;;;-0.80;71.87
54918;BME280;40818;50.562;7.454;2023-04-03T22:36:14;98812.00;;;-0.84;72.24
54918;BME280;40818;50.562;7.454;2023-04-03T22:46:20;98817.09;;;-0.92;71.89
54918;BME280;40818;50.562;7.454;2023-04-03T22:56:25;98816.25;;;-0.93;72.46
54918;BME280;40818;50.562;7.454;2023-04-03T23:06:31;98820.50;;;-1.09;73.83
54918;BME280;40818;50.562;7.454;2023-04-03T23:16:35;98815.44;;;-1.18;72.71
54918;BME280;40818;50.562;7.454;2023-04-03T23:26:41;98806.94;;;-1.28;72.91
54918;BME280;40818;50.562;7.454;2023-04-03T23:36:44;98813.72;;;-1.41;74.79
54918;BME280;40818;50.562;7.454;2023-04-03T23:46:50;98802.69;;;-1.52;74.99
54918;BME280;40818;50.562;7.454;2023-04-03T23:56:56;98797.59;;;-1.60;76.26
